Time;durP1;ratioP1;P1;durP2;ratioP2;P2;SDS_P1;SDS_P2;PMS_P1;PMS_P2;Temp;Humidity;BMP_temperature;BMP_pressure;BME280_temperature;BME280_humidity;BME280_pressure;Samples;Min_cycle;Max_cycle;Signal;HPM_P1;HPM_P2
2021/11/15 05:00:50;;;;;;;39.22;29.10;;;;;;;5.72;100.00;95605.03;5946015;23;20026;-76
2021/11/15 05:03:17;;;;;;;43.72;30.85;;;;;;;5.72;100.00;95597.34;4928128;28;20039;-76
2021/11/15 05:05:44;;;;;;;44.75;29.27;;;;;;;5.72;100.00;95607.63;4939162;28;20035;-77
2021/11/15 05:08:10;;;;;;;42.22;31.08;;;;;;;5.66;100.00;95610.69;4953718;28;20027;-76
2021/11/15 05:10:35;;;;;;;41.10;29.67;;;;;;;5.65;100.00;95609.03;4955292;28;20113;-76
2021/11/15 05:13:02;;;;;;;41.40;30.73;;;;;;;5.62;100.00;95619.56;4953393;28;20027;-76
2021/11/15 05:15:27;;;;;;;43.65;31.23;;;;;;;5.60;100.00;95634.31;4955470;28;20444;-76
2021/11/15 05:17:53;;;;;;;39.72;30.20;;;;;;;5.60;100.00;95630.91;4953451;28;20054;-76
2021/11/15 05:20:19;;;;;;;46.17;30.27;;;;;;;5.63;100.00;95638.38;4923011;28;20030;-76
2021/11/15 05:22:44;;;;;;;46.17;32.00;;;;;;;5.60;100.00;95634.31;4937155;28;20475;-76
2021/11/15 05:25:10;;;;;;;41.33;30.60;;;;;;;5.60;100.00;95634.31;4941518;28;20019;-76
2021/11/15 05:27:36;;;;;;;42.42;31.30;;;;;;;5.56;100.00;95640.63;4958186;28;20046;-75
2021/11/15 05:30:04;;;;;;;50.83;36.03;;;;;;;5.43;100.00;95639.16;4955298;28;20030;-76
2021/11/15 05:32:30;;;;;;;57.40;39.13;;;;;;;5.38;100.00;95651.56;4943241;29;20105;-76
2021/11/15 05:34:57;;;;;;;60.33;39.78;;;;;;;5.39;100.00;95648.06;4902277;29;20035;-77
2021/11/15 05:37:22;;;;;;;64.00;43.50;;;;;;;5.32;100.00;95634.88;4920421;29;20064;-77
2021/11/15 05:39:48;;;;;;;74.07;47.45;;;;;;;5.27;100.00;95635.25;4933792;29;20043;-76
2021/11/15 05:42:13;;;;;;;72.35;47.80;;;;;;;5.30;100.00;95634.19;4919703;29;20027;-75
2021/11/15 05:44:38;;;;;;;69.78;47.05;;;;;;;5.14;100.00;95632.00;4951379;29;20496;-75
2021/11/15 05:47:04;;;;;;;73.93;47.00;;;;;;;5.18;100.00;95637.72;4918157;29;20125;-74
2021/11/15 05:49:29;;;;;;;77.40;50.33;;;;;;;5.23;100.00;95641.53;4919312;29;20074;-75
2021/11/15 05:51:55;;;;;;;71.72;45.60;;;;;;;5.24;100.00;95640.63;4950883;28;20041;-75
2021/11/15 05:54:21;;;;;;;70.97;44.38;;;;;;;5.27;100.00;95645.50;4991006;28;20472;-74
2021/11/15 05:56:46;;;;;;;70.32;45.95;;;;;;;5.33;100.00;95650.16;4989448;28;20066;-75
2021/11/15 05:59:13;;;;;;;67.38;45.15;;;;;;;5.33;100.00;95651.91;4972701;28;20034;-75
2021/11/15 06:01:39;;;;;;;65.57;42.97;;;;;;;5.49;100.00;95652.31;4956025;28;20441;-75
2021/11/15 06:04:05;;;;;;;69.53;44.58;;;;;;;5.51;100.00;95645.31;4973174;28;20113;-76
2021/11/15 06:06:31;;;;;;;67.82;44.30;;;;;;;5.54;100.00;95642.50;4989919;28;20072;-76
2021/11/15 06:08:56;;;;;;;67.93;43.17;;;;;;;5.57;100.00;95651.72;4971837;28;20434;-76
2021/11/15 06:11:22;;;;;;;65.10;45.25;;;;;;;5.38;100.00;95659.25;4990848;28;20030;-76
2021/11/15 06:13:47;;;;;;;64.60;43.67;;;;;;;5.54;100.00;95664.81;4989150;28;20034;-76
2021/11/15 06:16:13;;;;;;;65.65;41.38;;;;;;;5.64;100.00;95661.38;4991024;28;20027;-76
2021/11/15 06:18:38;;;;;;;62.25;42.03;;;;;;;5.72;100.00;95664.16;4971933;28;20399;-76
2021/11/15 06:21:04;;;;;;;57.47;40.45;;;;;;;5.79;100.00;95665.28;4970818;28;20509;-76
2021/11/15 06:23:29;;;;;;;60.42;41.45;;;;;;;5.84;100.00;95654.66;4921249;28;20519;-76
2021/11/15 06:25:55;;;;;;;58.55;41.13;;;;;;;5.92;100.00;95649.72;4937486;28;20037;-76
2021/11/15 06:28:20;;;;;;;58.58;42.17;;;;;;;5.86;100.00;95652.78;4970827;28;20027;-76
2021/11/15 06:30:46;;;;;;;61.50;41.80;;;;;;;6.04;100.00;95661.56;4920700;28;20022;-76
2021/11/15 06:33:11;;;;;;;60.17;40.63;;;;;;;6.16;100.00;95652.03;4937393;28;20588;-76
2021/11/15 06:35:37;;;;;;;62.72;40.25;;;;;;;6.23;100.00;95648.81;4936341;28;20027;-76
2021/11/15 06:38:02;;;;;;;59.70;40.70;;;;;;;6.13;100.00;95647.94;4937513;28;20117;-76
2021/11/15 06:40:28;;;;;;;59.40;38.97;;;;;;;6.13;100.00;95668.50;4935857;28;20046;-76
2021/11/15 06:42:53;;;;;;;56.45;38.10;;;;;;;6.20;100.00;95651.66;4964685;28;20042;-76
2021/11/15 06:45:19;;;;;;;55.22;39.35;;;;;;;6.42;100.00;95642.16;4939371;28;20026;-76
2021/11/15 06:47:44;;;;;;;53.67;36.90;;;;;;;6.51;100.00;95631.91;4940218;28;20026;-76
2021/11/15 06:50:12;;;;;;;53.45;36.50;;;;;;;6.53;100.00;95630.03;4956134;28;20030;-77
2021/11/15 06:52:38;;;;;;;53.92;37.92;;;;;;;6.60;100.00;95612.31;4955583;28;20894;-76
2021/11/15 06:55:04;;;;;;;47.05;33.15;;;;;;;6.63;100.00;95612.84;4956987;28;20030;-76
2021/11/15 06:57:29;;;;;;;52.25;36.33;;;;;;;6.83;100.00;95611.97;4955230;28;20115;-76
2021/11/15 06:59:55;;;;;;;53.50;37.53;;;;;;;6.85;100.00;95607.50;4956333;28;20113;-76
2021/11/15 07:02:22;;;;;;;58.08;37.67;;;;;;;6.89;100.00;95610.63;4970028;28;20129;-75
2021/11/15 07:04:48;;;;;;;50.35;35.95;;;;;;;6.98;100.00;95609.03;4940039;28;20023;-75
2021/11/15 07:07:14;;;;;;;46.95;34.55;;;;;;;7.21;100.00;95584.66;4955646;28;20030;-76
2021/11/15 07:09:40;;;;;;;45.83;32.83;;;;;;;7.29;100.00;95582.22;4939445;28;20081;-76
2021/11/15 07:12:06;;;;;;;45.85;35.25;;;;;;;7.51;100.00;95561.34;4955657;28;20037;-76
2021/11/15 07:14:32;;;;;;;46.65;33.95;;;;;;;7.35;100.00;95528.38;4954318;28;20034;-76
2021/11/15 07:16:57;;;;;;;43.38;33.42;;;;;;;7.57;100.00;95552.25;4944604;28;20039;-76
2021/11/15 07:19:23;;;;;;;44.97;33.90;;;;;;;7.71;100.00;95554.38;4950801;28;20038;-76
2021/11/15 07:21:50;;;;;;;41.45;29.75;;;;;;;7.42;100.00;95534.63;4953215;28;20043;-76
2021/11/15 07:24:15;;;;;;;43.25;31.00;;;;;;;7.52;100.00;95534.63;4935240;28;20475;-76
2021/11/15 07:26:41;;;;;;;42.10;32.10;;;;;;;7.63;100.00;95529.31;4952162;28;20035;-76
2021/11/15 07:29:06;;;;;;;41.63;30.75;;;;;;;7.92;100.00;95518.94;4951890;28;20122;-76
2021/11/15 07:31:32;;;;;;;44.42;31.67;;;;;;;8.15;99.96;95511.66;4951452;28;20101;-76
2021/11/15 07:33:57;;;;;;;42.47;31.10;;;;;;;8.30;98.72;95511.09;4937508;28;20431;-76
2021/11/15 07:36:23;;;;;;;38.17;30.23;;;;;;;8.43;97.85;95503.81;4934782;28;20542;-76
2021/11/15 07:38:48;;;;;;;34.35;26.95;;;;;;;8.53;96.39;95502.94;4966479;28;20438;-76
2021/11/15 07:41:14;;;;;;;30.40;25.63;;;;;;;8.35;96.16;95502.91;4969008;28;20495;-76
2021/11/15 07:43:40;;;;;;;31.75;24.95;;;;;;;8.44;96.41;95499.47;4954702;28;20526;-76
2021/11/15 07:46:05;;;;;;;32.42;26.95;;;;;;;8.69;95.38;95501.38;4970488;28;20030;-76
2021/11/15 07:48:31;;;;;;;36.92;27.17;;;;;;;8.90;95.49;95495.91;4970915;28;20037;-76
2021/11/15 07:50:57;;;;;;;34.50;28.20;;;;;;;8.50;95.77;95501.47;4955354;28;20510;-76
2021/11/15 07:53:22;;;;;;;36.17;27.10;;;;;;;8.57;96.28;95499.13;4969570;28;20025;-76
2021/11/15 07:55:48;;;;;;;35.58;29.10;;;;;;;8.85;95.28;95498.13;4938661;28;20035;-76
2021/11/15 07:58:15;;;;;;;33.65;26.52;;;;;;;8.93;95.28;95501.59;4954116;28;20089;-76
2021/11/15 08:00:41;;;;;;;35.83;29.00;;;;;;;9.12;94.71;95494.69;4971211;28;20038;-76
2021/11/15 08:03:06;;;;;;;35.50;27.08;;;;;;;8.83;94.78;95493.09;4938217;28;20137;-76
2021/11/15 08:05:32;;;;;;;31.75;26.50;;;;;;;9.20;93.17;95487.81;4971092;28;20026;-76
2021/11/15 08:07:57;;;;;;;26.25;22.00;;;;;;;9.04;90.83;95473.94;4964092;28;20056;-76
2021/11/15 08:10:23;;;;;;;21.23;19.08;;;;;;;9.27;89.17;95485.44;4934483;28;20027;-76
2021/11/15 08:12:51;;;;;;;23.85;20.15;;;;;;;9.14;88.38;95477.25;4935273;28;20031;-77
2021/11/15 08:15:17;;;;;;;20.63;18.52;;;;;;;9.33;87.36;95479.66;4935236;28;20035;-76
2021/11/15 08:17:53;;;;;;;21.10;19.02;;;;;;;9.42;86.98;95486.50;4952257;28;20023;-76
2021/11/15 08:20:27;;;;;;;20.35;17.52;;;;;;;9.56;86.24;95480.00;4934858;28;20030;-76
2021/11/15 08:22:55;;;;;;;23.10;18.50;;;;;;;9.64;86.14;95480.03;4936415;28;20412;-76
2021/11/15 08:25:51;;;;;;;19.25;17.15;;;;;;;9.60;85.42;95479.53;4934639;28;20061;-76
2021/11/15 08:28:17;;;;;;;20.30;18.13;;;;;;;9.93;84.67;95486.53;4965796;28;20057;-76
2021/11/15 08:30:42;;;;;;;20.60;18.27;;;;;;;9.79;84.77;95475.94;4951563;28;20497;-76
2021/11/15 08:33:10;;;;;;;19.52;17.50;;;;;;;9.86;84.42;95482.91;4934793;28;20034;-76
2021/11/15 08:35:35;;;;;;;22.20;19.90;;;;;;;10.06;84.05;95489.50;4935703;28;20026;-76
2021/11/15 08:38:13;;;;;;;21.58;19.25;;;;;;;10.11;83.36;95480.47;4935034;28;20480;-76
2021/11/15 08:40:38;;;;;;;21.73;16.98;;;;;;;9.79;83.84;95481.13;4967247;28;20035;-76
2021/11/15 08:43:04;;;;;;;21.20;17.77;;;;;;;9.91;82.71;95488.47;4935668;28;20482;-76
